N4RS KHPN-KMCO
Flight info
| Callsign | N4RS |
|---|---|
| Flight time | 2h 18m |
| Altitude | 43000 |
| Route | WHITE Q409 CRPLR Q85 LPERD GTOUT1 |
| Aircraft | E55P/M-SBDGRW/LB2 |
Departure
| Time | 2026-04-26 10:10 |
|---|---|
| Airport | Westchester County Airport (KHPN) |
Arrival
| Time | 2026-04-26 12:29 |
|---|---|
| Airport | Orlando International Airport (KMCO) |
| Time | Latitude | Longitude | Altitude | Speed | Heading |
|---|---|---|---|---|---|
| 2026-04-26 09:35 | 41.07044 | -73.70670 | 412 ft | 0 kts | 149° |
| 2026-04-26 10:04 | 41.07014 | -73.70660 | 411 ft | 7 kts | 185° |
| 2026-04-26 10:05 | 41.06948 | -73.70651 | 407 ft | 12 kts | 150° |
| 2026-04-26 10:05 | 41.06865 | -73.70588 | 404 ft | 15 kts | 149° |
| 2026-04-26 10:05 | 41.06764 | -73.70510 | 399 ft | 18 kts | 149° |
| 2026-04-26 10:05 | 41.06649 | -73.70422 | 392 ft | 18 kts | 149° |
| 2026-04-26 10:06 | 41.06530 | -73.70331 | 388 ft | 21 kts | 149° |
| 2026-04-26 10:06 | 41.06398 | -73.70230 | 382 ft | 21 kts | 149° |
| 2026-04-26 10:06 | 41.06271 | -73.70132 | 378 ft | 22 kts | 150° |
| 2026-04-26 10:06 | 41.06157 | -73.70045 | 373 ft | 17 kts | 150° |
| 2026-04-26 10:07 | 41.06061 | -73.70042 | 369 ft | 6 kts | 220° |
| 2026-04-26 10:07 | 41.06054 | -73.70050 | 369 ft | 0 kts | 228° |
| 2026-04-26 10:09 | 41.06054 | -73.70051 | 369 ft | 0 kts | 228° |
| 2026-04-26 10:09 | 41.06043 | -73.70069 | 369 ft | 4 kts | 235° |
| 2026-04-26 10:09 | 41.06020 | -73.70121 | 369 ft | 7 kts | 244° |
| 2026-04-26 10:09 | 41.06033 | -73.70164 | 371 ft | 4 kts | 328° |
| 2026-04-26 10:10 | 41.06199 | -73.70293 | 377 ft | 65 kts | 330° |
| 2026-04-26 10:10 | 41.06809 | -73.70758 | 421 ft | 129 kts | 329° |
| 2026-04-26 10:10 | 41.07655 | -73.71397 | 932 ft | 150 kts | 333° |
| 2026-04-26 10:10 | 41.08492 | -73.72298 | 1547 ft | 168 kts | 304° |
| 2026-04-26 10:11 | 41.08811 | -73.73869 | 2002 ft | 191 kts | 280° |
| 2026-04-26 10:11 | 41.09000 | -73.75720 | 2374 ft | 213 kts | 282° |
| 2026-04-26 10:11 | 41.09234 | -73.77685 | 2715 ft | 221 kts | 281° |
| 2026-04-26 10:11 | 41.09002 | -73.79708 | 3329 ft | 234 kts | 241° |
| 2026-04-26 10:12 | 41.07921 | -73.81316 | 4120 ft | 244 kts | 219° |
| 2026-04-26 10:12 | 41.06565 | -73.82742 | 4999 ft | 251 kts | 218° |
| 2026-04-26 10:12 | 41.05199 | -73.84119 | 6025 ft | 250 kts | 218° |
| 2026-04-26 10:12 | 41.03831 | -73.85468 | 6984 ft | 249 kts | 217° |
| 2026-04-26 10:13 | 41.02451 | -73.86839 | 7814 ft | 254 kts | 218° |
| 2026-04-26 10:13 | 41.01014 | -73.88239 | 8669 ft | 257 kts | 218° |
| 2026-04-26 10:13 | 40.99578 | -73.89625 | 9512 ft | 260 kts | 218° |
| 2026-04-26 10:13 | 40.98128 | -73.91013 | 10340 ft | 262 kts | 218° |
| 2026-04-26 10:14 | 40.96643 | -73.92421 | 11068 ft | 268 kts | 218° |
| 2026-04-26 10:14 | 40.95098 | -73.93861 | 11629 ft | 280 kts | 218° |
| 2026-04-26 10:14 | 40.93438 | -73.95396 | 11955 ft | 300 kts | 218° |
| 2026-04-26 10:14 | 40.91668 | -73.97034 | 12010 ft | 327 kts | 218° |
| 2026-04-26 10:15 | 40.89728 | -73.98851 | 12019 ft | 352 kts | 217° |
| 2026-04-26 10:15 | 40.87687 | -74.00769 | 12005 ft | 362 kts | 218° |
| 2026-04-26 10:15 | 40.85636 | -74.02698 | 11998 ft | 363 kts | 218° |
| 2026-04-26 10:15 | 40.83559 | -74.04535 | 11980 ft | 366 kts | 207° |
| 2026-04-26 10:16 | 40.81035 | -74.05201 | 12022 ft | 370 kts | 185° |
| 2026-04-26 10:16 | 40.78530 | -74.05756 | 12023 ft | 368 kts | 195° |
| 2026-04-26 10:16 | 40.75996 | -74.06320 | 12089 ft | 367 kts | 193° |
| 2026-04-26 10:16 | 40.73543 | -74.06966 | 12492 ft | 355 kts | 192° |
| 2026-04-26 10:17 | 40.71167 | -74.07568 | 13239 ft | 336 kts | 194° |
| 2026-04-26 10:17 | 40.68903 | -74.08127 | 14054 ft | 333 kts | 194° |
| 2026-04-26 10:17 | 40.66674 | -74.08689 | 14947 ft | 328 kts | 194° |
| 2026-04-26 10:17 | 40.64455 | -74.09245 | 15803 ft | 324 kts | 194° |
| 2026-04-26 10:18 | 40.62246 | -74.09803 | 16455 ft | 328 kts | 194° |
| 2026-04-26 10:18 | 40.59956 | -74.10381 | 16904 ft | 338 kts | 194° |
| 2026-04-26 10:18 | 40.57582 | -74.10981 | 17002 ft | 360 kts | 194° |
| 2026-04-26 10:18 | 40.55043 | -74.11618 | 17019 ft | 381 kts | 194° |
| 2026-04-26 10:19 | 40.52410 | -74.12278 | 17012 ft | 391 kts | 194° |
| 2026-04-26 10:19 | 40.49744 | -74.12942 | 17000 ft | 393 kts | 194° |
| 2026-04-26 10:19 | 40.47022 | -74.13622 | 16994 ft | 395 kts | 194° |
| 2026-04-26 10:19 | 40.44343 | -74.14292 | 16988 ft | 397 kts | 194° |
| 2026-04-26 10:20 | 40.41591 | -74.14975 | 16984 ft | 399 kts | 194° |
| 2026-04-26 10:20 | 40.38897 | -74.15650 | 17074 ft | 397 kts | 194° |
| 2026-04-26 10:20 | 40.36194 | -74.16319 | 17483 ft | 388 kts | 194° |
| 2026-04-26 10:20 | 40.33608 | -74.16964 | 18215 ft | 370 kts | 194° |
| 2026-04-26 10:21 | 40.31141 | -74.17575 | 19065 ft | 363 kts | 194° |
| 2026-04-26 10:21 | 40.28681 | -74.18185 | 19963 ft | 355 kts | 195° |
| 2026-04-26 10:21 | 40.26318 | -74.18771 | 20897 ft | 346 kts | 195° |
| 2026-04-26 10:21 | 40.23987 | -74.19347 | 21857 ft | 335 kts | 195° |
| 2026-04-26 10:22 | 40.21755 | -74.19904 | 22794 ft | 325 kts | 196° |
| 2026-04-26 10:22 | 40.19590 | -74.20438 | 23611 ft | 317 kts | 196° |
| 2026-04-26 10:22 | 40.17428 | -74.20978 | 24324 ft | 314 kts | 197° |
| 2026-04-26 10:22 | 40.15303 | -74.21502 | 24935 ft | 314 kts | 197° |
| 2026-04-26 10:23 | 40.13146 | -74.22041 | 25503 ft | 316 kts | 197° |
| 2026-04-26 10:23 | 40.10998 | -74.22572 | 26027 ft | 318 kts | 198° |
| 2026-04-26 10:23 | 40.08825 | -74.23112 | 26594 ft | 319 kts | 197° |
| 2026-04-26 10:23 | 40.06629 | -74.23653 | 27172 ft | 319 kts | 198° |
| 2026-04-26 10:24 | 40.04451 | -74.24193 | 27704 ft | 320 kts | 198° |
| 2026-04-26 10:24 | 40.02269 | -74.24730 | 28245 ft | 321 kts | 198° |
| 2026-04-26 10:24 | 40.00194 | -74.25568 | 28737 ft | 310 kts | 216° |
| 2026-04-26 10:24 | 39.98478 | -74.27228 | 29200 ft | 308 kts | 222° |
| 2026-04-26 10:25 | 39.96751 | -74.28870 | 29731 ft | 309 kts | 221° |
| 2026-04-26 10:25 | 39.95000 | -74.30537 | 30215 ft | 310 kts | 221° |
| 2026-04-26 10:25 | 39.93280 | -74.32175 | 30771 ft | 308 kts | 221° |
| 2026-04-26 10:25 | 39.91573 | -74.33801 | 31351 ft | 305 kts | 221° |
| 2026-04-26 10:26 | 39.89879 | -74.35413 | 31899 ft | 302 kts | 221° |
| 2026-04-26 10:26 | 39.88171 | -74.37036 | 32418 ft | 301 kts | 221° |
| 2026-04-26 10:26 | 39.86509 | -74.38615 | 32946 ft | 298 kts | 222° |
| 2026-04-26 10:26 | 39.84822 | -74.40218 | 33439 ft | 297 kts | 222° |
| 2026-04-26 10:27 | 39.83165 | -74.41795 | 33930 ft | 295 kts | 222° |
| 2026-04-26 10:27 | 39.81521 | -74.43412 | 34431 ft | 290 kts | 227° |
| 2026-04-26 10:27 | 39.80144 | -74.45270 | 34795 ft | 289 kts | 230° |
| 2026-04-26 10:27 | 39.78725 | -74.47150 | 35139 ft | 290 kts | 230° |
| 2026-04-26 10:28 | 39.77320 | -74.49016 | 35440 ft | 292 kts | 230° |
| 2026-04-26 10:28 | 39.75896 | -74.50908 | 35766 ft | 293 kts | 230° |
| 2026-04-26 10:28 | 39.74481 | -74.52781 | 36060 ft | 294 kts | 230° |
| 2026-04-26 10:28 | 39.73041 | -74.54688 | 36366 ft | 296 kts | 230° |
| 2026-04-26 10:29 | 39.71606 | -74.56591 | 36762 ft | 296 kts | 231° |
| 2026-04-26 10:29 | 39.70179 | -74.58479 | 37186 ft | 297 kts | 231° |
| 2026-04-26 10:29 | 39.68736 | -74.60384 | 37608 ft | 297 kts | 231° |
| 2026-04-26 10:29 | 39.67280 | -74.62313 | 37989 ft | 298 kts | 231° |
| 2026-04-26 10:30 | 39.65829 | -74.64228 | 38352 ft | 299 kts | 231° |
| 2026-04-26 10:30 | 39.64373 | -74.66155 | 38677 ft | 300 kts | 230° |
| 2026-04-26 10:30 | 39.62925 | -74.68066 | 39011 ft | 301 kts | 230° |
| 2026-04-26 10:30 | 39.61459 | -74.69998 | 39341 ft | 302 kts | 230° |
| 2026-04-26 10:31 | 39.59977 | -74.71948 | 39654 ft | 303 kts | 231° |
| 2026-04-26 10:31 | 39.58507 | -74.73888 | 39918 ft | 305 kts | 230° |
| 2026-04-26 10:31 | 39.57005 | -74.75859 | 40177 ft | 306 kts | 231° |
| 2026-04-26 10:31 | 39.55532 | -74.77802 | 40405 ft | 307 kts | 231° |
| 2026-04-26 10:32 | 39.54015 | -74.79796 | 40628 ft | 308 kts | 231° |
| 2026-04-26 10:32 | 39.52519 | -74.81760 | 40862 ft | 309 kts | 230° |
| 2026-04-26 10:32 | 39.51026 | -74.83720 | 41072 ft | 310 kts | 230° |
| 2026-04-26 10:32 | 39.49514 | -74.85703 | 41259 ft | 311 kts | 230° |
| 2026-04-26 10:33 | 39.47987 | -74.87702 | 41451 ft | 312 kts | 230° |
| 2026-04-26 10:33 | 39.46473 | -74.89691 | 41642 ft | 312 kts | 230° |
| 2026-04-26 10:33 | 39.44932 | -74.91707 | 41827 ft | 312 kts | 230° |
| 2026-04-26 10:33 | 39.43401 | -74.93707 | 42006 ft | 314 kts | 230° |
| 2026-04-26 10:34 | 39.41886 | -74.95689 | 42204 ft | 314 kts | 230° |
| 2026-04-26 10:34 | 39.40354 | -74.97693 | 42389 ft | 315 kts | 230° |
| 2026-04-26 10:34 | 39.38799 | -74.99717 | 42564 ft | 316 kts | 230° |
| 2026-04-26 10:34 | 39.37252 | -75.01739 | 42746 ft | 317 kts | 230° |
| 2026-04-26 10:35 | 39.35712 | -75.03747 | 42948 ft | 317 kts | 230° |
| 2026-04-26 10:35 | 39.34142 | -75.05795 | 43014 ft | 321 kts | 230° |
| 2026-04-26 10:35 | 39.30959 | -75.09940 | 43044 ft | 333 kts | 230° |
| 2026-04-26 10:36 | 39.27479 | -75.14130 | 43046 ft | 347 kts | 227° |
| 2026-04-26 10:36 | 39.23840 | -75.18393 | 43032 ft | 360 kts | 226° |
| 2026-04-26 10:37 | 39.20082 | -75.22782 | 43029 ft | 371 kts | 227° |
| 2026-04-26 10:37 | 39.16224 | -75.27286 | 43039 ft | 381 kts | 226° |
| 2026-04-26 10:38 | 39.12255 | -75.31914 | 43038 ft | 391 kts | 226° |
| 2026-04-26 10:38 | 39.08177 | -75.36661 | 43035 ft | 400 kts | 226° |
| 2026-04-26 10:39 | 39.04036 | -75.41470 | 43030 ft | 400 kts | 226° |
| 2026-04-26 10:39 | 39.01807 | -75.43605 | 43016 ft | 407 kts | 210° |
| 2026-04-26 10:39 | 38.99081 | -75.44576 | 43061 ft | 418 kts | 191° |
| 2026-04-26 10:40 | 38.93273 | -75.45292 | 43039 ft | 419 kts | 192° |
| 2026-04-26 10:40 | 38.87477 | -75.46090 | 43022 ft | 420 kts | 192° |
| 2026-04-26 10:41 | 38.81676 | -75.46890 | 43016 ft | 420 kts | 192° |
| 2026-04-26 10:41 | 38.75846 | -75.47694 | 43006 ft | 420 kts | 192° |
| 2026-04-26 10:42 | 38.70042 | -75.48489 | 43000 ft | 419 kts | 192° |
| 2026-04-26 10:42 | 38.64262 | -75.49272 | 43000 ft | 419 kts | 192° |
| 2026-04-26 10:43 | 38.58434 | -75.50066 | 42991 ft | 419 kts | 192° |
| 2026-04-26 10:43 | 38.52622 | -75.50854 | 42978 ft | 420 kts | 192° |
| 2026-04-26 10:44 | 38.46831 | -75.51636 | 42975 ft | 419 kts | 192° |
| 2026-04-26 10:44 | 38.41060 | -75.52416 | 42986 ft | 418 kts | 192° |
| 2026-04-26 10:45 | 38.35271 | -75.53224 | 42990 ft | 416 kts | 195° |
| 2026-04-26 10:45 | 38.32633 | -75.54473 | 43018 ft | 399 kts | 218° |
| 2026-04-26 10:45 | 38.30375 | -75.56473 | 43013 ft | 397 kts | 219° |
| 2026-04-26 10:46 | 38.25787 | -75.60457 | 42999 ft | 398 kts | 219° |
| 2026-04-26 10:46 | 38.21238 | -75.64417 | 42997 ft | 398 kts | 219° |
| 2026-04-26 10:47 | 38.16689 | -75.68375 | 43008 ft | 399 kts | 219° |
| 2026-04-26 10:47 | 38.12069 | -75.72383 | 42998 ft | 400 kts | 218° |
| 2026-04-26 10:48 | 38.07477 | -75.76365 | 42994 ft | 401 kts | 218° |
| 2026-04-26 10:48 | 38.02885 | -75.80336 | 42993 ft | 401 kts | 219° |
| 2026-04-26 10:49 | 37.98283 | -75.84317 | 42987 ft | 401 kts | 219° |
| 2026-04-26 10:49 | 37.93684 | -75.88287 | 42989 ft | 401 kts | 218° |
| 2026-04-26 10:50 | 37.89078 | -75.92251 | 42991 ft | 401 kts | 219° |
| 2026-04-26 10:50 | 37.84447 | -75.96238 | 42990 ft | 401 kts | 219° |
| 2026-04-26 10:51 | 37.77516 | -76.02184 | 42989 ft | 401 kts | 219° |
| 2026-04-26 10:52 | 37.72905 | -76.06140 | 43005 ft | 402 kts | 219° |
| 2026-04-26 10:52 | 37.68297 | -76.10081 | 43009 ft | 403 kts | 219° |
| 2026-04-26 10:53 | 37.63644 | -76.14053 | 42989 ft | 403 kts | 219° |
| 2026-04-26 10:53 | 37.58955 | -76.17909 | 42987 ft | 405 kts | 216° |
| 2026-04-26 10:54 | 37.51759 | -76.23367 | 42986 ft | 404 kts | 216° |
| 2026-04-26 10:54 | 37.46943 | -76.27020 | 42991 ft | 403 kts | 216° |
| 2026-04-26 10:55 | 37.42139 | -76.30660 | 42997 ft | 403 kts | 216° |
| 2026-04-26 10:55 | 37.37308 | -76.34308 | 42997 ft | 403 kts | 216° |
| 2026-04-26 10:56 | 37.32496 | -76.37947 | 43004 ft | 403 kts | 216° |
| 2026-04-26 10:56 | 37.27729 | -76.41537 | 43009 ft | 403 kts | 216° |
| 2026-04-26 10:57 | 37.22918 | -76.45161 | 43003 ft | 403 kts | 216° |
| 2026-04-26 10:57 | 37.18119 | -76.48767 | 43108 ft | 402 kts | 216° |
| 2026-04-26 10:58 | 37.15729 | -76.50559 | 43255 ft | 402 kts | 216° |
| 2026-04-26 10:58 | 37.13306 | -76.52380 | 43433 ft | 403 kts | 216° |
| 2026-04-26 10:58 | 37.10927 | -76.54158 | 43600 ft | 403 kts | 216° |
| 2026-04-26 10:58 | 37.08515 | -76.55969 | 43737 ft | 404 kts | 216° |
| 2026-04-26 10:59 | 37.06110 | -76.57771 | 43846 ft | 405 kts | 216° |
| 2026-04-26 10:59 | 37.03684 | -76.59587 | 43956 ft | 407 kts | 216° |
| 2026-04-26 10:59 | 37.01265 | -76.61395 | 44081 ft | 408 kts | 216° |
| 2026-04-26 10:59 | 36.98833 | -76.63208 | 44220 ft | 408 kts | 216° |
| 2026-04-26 11:00 | 36.96378 | -76.65040 | 44373 ft | 407 kts | 215° |
| 2026-04-26 11:00 | 36.93952 | -76.66850 | 44527 ft | 407 kts | 215° |
| 2026-04-26 11:00 | 36.91538 | -76.68647 | 44654 ft | 408 kts | 215° |
| 2026-04-26 11:00 | 36.89077 | -76.70483 | 44806 ft | 408 kts | 216° |
| 2026-04-26 11:01 | 36.86621 | -76.72310 | 44964 ft | 408 kts | 215° |
| 2026-04-26 11:01 | 36.84175 | -76.74130 | 45007 ft | 411 kts | 215° |
| 2026-04-26 11:01 | 36.79281 | -76.77764 | 44997 ft | 412 kts | 216° |
| 2026-04-26 11:02 | 36.74332 | -76.81431 | 44987 ft | 413 kts | 216° |
| 2026-04-26 11:02 | 36.69405 | -76.85080 | 44975 ft | 413 kts | 216° |
| 2026-04-26 11:03 | 36.64491 | -76.88715 | 44986 ft | 413 kts | 215° |
| 2026-04-26 11:03 | 36.59515 | -76.92387 | 44949 ft | 414 kts | 215° |
| 2026-04-26 11:04 | 36.54569 | -76.96034 | 44936 ft | 413 kts | 216° |
| 2026-04-26 11:04 | 36.49620 | -76.99676 | 44945 ft | 412 kts | 215° |
| 2026-04-26 11:05 | 36.44720 | -77.03278 | 44943 ft | 412 kts | 215° |
| 2026-04-26 11:05 | 36.39802 | -77.06885 | 44961 ft | 412 kts | 215° |
| 2026-04-26 11:06 | 36.34844 | -77.10519 | 44971 ft | 413 kts | 215° |
| 2026-04-26 11:06 | 36.29918 | -77.14122 | 44963 ft | 414 kts | 215° |
| 2026-04-26 11:07 | 36.24935 | -77.17762 | 44948 ft | 415 kts | 215° |
| 2026-04-26 11:07 | 36.19992 | -77.21367 | 44928 ft | 415 kts | 215° |
| 2026-04-26 11:08 | 36.15011 | -77.24994 | 44920 ft | 413 kts | 215° |
| 2026-04-26 11:08 | 36.10054 | -77.28598 | 44924 ft | 413 kts | 216° |
| 2026-04-26 11:09 | 36.05120 | -77.32185 | 44924 ft | 412 kts | 216° |
| 2026-04-26 11:09 | 36.00620 | -77.36422 | 44928 ft | 408 kts | 223° |
| 2026-04-26 11:10 | 35.96162 | -77.40739 | 44930 ft | 408 kts | 223° |
| 2026-04-26 11:10 | 35.91675 | -77.45077 | 44941 ft | 409 kts | 223° |
| 2026-04-26 11:11 | 35.87214 | -77.49377 | 44922 ft | 410 kts | 223° |
| 2026-04-26 11:11 | 35.82727 | -77.53702 | 44914 ft | 410 kts | 223° |
| 2026-04-26 11:12 | 35.78223 | -77.58033 | 44914 ft | 409 kts | 223° |
| 2026-04-26 11:12 | 35.73749 | -77.62331 | 44917 ft | 409 kts | 223° |
| 2026-04-26 11:13 | 35.69265 | -77.66633 | 44930 ft | 409 kts | 222° |
| 2026-04-26 11:13 | 35.64762 | -77.70946 | 44926 ft | 409 kts | 222° |
| 2026-04-26 11:14 | 35.60288 | -77.75223 | 44932 ft | 408 kts | 222° |
| 2026-04-26 11:14 | 35.55827 | -77.79484 | 44961 ft | 408 kts | 222° |
| 2026-04-26 11:15 | 35.51322 | -77.83784 | 44969 ft | 410 kts | 222° |
| 2026-04-26 11:15 | 35.46818 | -77.88071 | 44952 ft | 411 kts | 222° |
| 2026-04-26 11:16 | 35.42293 | -77.92374 | 44942 ft | 411 kts | 222° |
| 2026-04-26 11:16 | 35.37788 | -77.96651 | 44932 ft | 412 kts | 222° |
| 2026-04-26 11:17 | 35.33257 | -78.00944 | 44927 ft | 412 kts | 222° |
| 2026-04-26 11:17 | 35.28736 | -78.05225 | 44923 ft | 412 kts | 222° |
| 2026-04-26 11:18 | 35.24204 | -78.09509 | 44924 ft | 412 kts | 222° |
| 2026-04-26 11:18 | 35.19680 | -78.13779 | 44921 ft | 412 kts | 222° |
| 2026-04-26 11:19 | 35.15163 | -78.18037 | 44916 ft | 412 kts | 222° |
| 2026-04-26 11:19 | 35.10624 | -78.22311 | 44914 ft | 411 kts | 222° |
| 2026-04-26 11:20 | 35.06838 | -78.25871 | 44913 ft | 411 kts | 222° |
| 2026-04-26 11:20 | 35.01576 | -78.30806 | 44917 ft | 411 kts | 222° |
| 2026-04-26 11:21 | 34.97046 | -78.35057 | 44911 ft | 410 kts | 222° |
| 2026-04-26 11:21 | 34.92506 | -78.39304 | 44917 ft | 409 kts | 222° |
| 2026-04-26 11:22 | 34.88028 | -78.43492 | 44910 ft | 408 kts | 221° |
| 2026-04-26 11:22 | 34.83524 | -78.47697 | 44928 ft | 408 kts | 222° |
| 2026-04-26 11:23 | 34.79022 | -78.51894 | 44924 ft | 409 kts | 221° |
| 2026-04-26 11:23 | 34.74507 | -78.56094 | 44916 ft | 409 kts | 221° |
| 2026-04-26 11:24 | 34.70006 | -78.60279 | 44913 ft | 409 kts | 222° |
| 2026-04-26 11:24 | 34.65474 | -78.64482 | 44924 ft | 409 kts | 222° |
| 2026-04-26 11:25 | 34.60963 | -78.68668 | 44928 ft | 409 kts | 221° |
| 2026-04-26 11:25 | 34.56422 | -78.72867 | 44903 ft | 410 kts | 221° |
| 2026-04-26 11:26 | 34.51889 | -78.77059 | 44900 ft | 410 kts | 221° |
| 2026-04-26 11:26 | 34.47342 | -78.81245 | 44909 ft | 410 kts | 221° |
| 2026-04-26 11:27 | 34.42780 | -78.85354 | 44912 ft | 412 kts | 219° |
| 2026-04-26 11:27 | 34.38077 | -78.89314 | 44924 ft | 413 kts | 219° |
| 2026-04-26 11:28 | 34.33343 | -78.93307 | 44925 ft | 415 kts | 219° |
| 2026-04-26 11:28 | 34.28630 | -78.97273 | 44913 ft | 416 kts | 219° |
| 2026-04-26 11:29 | 34.23863 | -79.01283 | 44906 ft | 417 kts | 220° |
| 2026-04-26 11:29 | 34.19106 | -79.05281 | 44899 ft | 417 kts | 220° |
| 2026-04-26 11:30 | 34.15154 | -79.08593 | 44894 ft | 416 kts | 220° |
| 2026-04-26 11:30 | 34.09612 | -79.13236 | 44905 ft | 416 kts | 220° |
| 2026-04-26 11:31 | 34.04859 | -79.17210 | 44907 ft | 416 kts | 220° |
| 2026-04-26 11:31 | 34.00113 | -79.21184 | 44908 ft | 417 kts | 220° |
| 2026-04-26 11:32 | 33.95344 | -79.25163 | 44910 ft | 417 kts | 220° |
| 2026-04-26 11:32 | 33.90599 | -79.29119 | 44909 ft | 417 kts | 220° |
| 2026-04-26 11:33 | 33.85810 | -79.33103 | 44909 ft | 418 kts | 220° |
| 2026-04-26 11:33 | 33.81041 | -79.37071 | 44901 ft | 418 kts | 221° |
| 2026-04-26 11:34 | 33.76252 | -79.41051 | 44903 ft | 417 kts | 220° |
| 2026-04-26 11:34 | 33.71476 | -79.45009 | 44903 ft | 417 kts | 220° |
| 2026-04-26 11:35 | 33.66713 | -79.48953 | 44903 ft | 417 kts | 221° |
| 2026-04-26 11:35 | 33.61948 | -79.52895 | 44910 ft | 416 kts | 220° |
| 2026-04-26 11:36 | 33.57170 | -79.56834 | 44907 ft | 416 kts | 221° |
| 2026-04-26 11:36 | 33.52397 | -79.60773 | 44920 ft | 416 kts | 221° |
| 2026-04-26 11:37 | 33.47618 | -79.64712 | 44920 ft | 418 kts | 221° |
| 2026-04-26 11:37 | 33.42837 | -79.68642 | 44913 ft | 419 kts | 220° |
| 2026-04-26 11:38 | 33.38039 | -79.72579 | 44911 ft | 419 kts | 220° |
| 2026-04-26 11:38 | 33.33231 | -79.76523 | 44920 ft | 419 kts | 220° |
| 2026-04-26 11:39 | 33.28442 | -79.80442 | 44911 ft | 420 kts | 220° |
| 2026-04-26 11:39 | 33.23602 | -79.84403 | 44913 ft | 420 kts | 220° |
| 2026-04-26 11:40 | 33.18789 | -79.88332 | 44917 ft | 421 kts | 220° |
| 2026-04-26 11:40 | 33.13948 | -79.92279 | 44916 ft | 421 kts | 220° |
| 2026-04-26 11:42 | 32.94842 | -80.07800 | 42477 ft | 421 kts | 222° |
| 2026-04-26 11:43 | 32.92417 | -80.09766 | 41947 ft | 424 kts | 222° |
| 2026-04-26 11:43 | 32.89994 | -80.11726 | 41424 ft | 426 kts | 222° |
| 2026-04-26 11:43 | 32.87545 | -80.13708 | 40816 ft | 427 kts | 223° |
| 2026-04-26 11:43 | 32.85099 | -80.15685 | 40193 ft | 428 kts | 223° |
| 2026-04-26 11:44 | 32.82612 | -80.17693 | 39518 ft | 431 kts | 223° |
| 2026-04-26 11:44 | 32.80150 | -80.19685 | 38824 ft | 435 kts | 223° |
| 2026-04-26 11:44 | 32.77638 | -80.21716 | 38125 ft | 438 kts | 223° |
| 2026-04-26 11:44 | 32.75125 | -80.23741 | 37443 ft | 440 kts | 223° |
| 2026-04-26 11:45 | 32.72611 | -80.25765 | 36756 ft | 438 kts | 223° |
| 2026-04-26 11:45 | 32.70101 | -80.27784 | 36088 ft | 434 kts | 223° |
| 2026-04-26 11:45 | 32.67608 | -80.29791 | 35421 ft | 431 kts | 223° |
| 2026-04-26 11:45 | 32.65142 | -80.31774 | 34764 ft | 428 kts | 223° |
| 2026-04-26 11:46 | 32.62666 | -80.33763 | 34194 ft | 430 kts | 223° |
| 2026-04-26 11:46 | 32.60206 | -80.35741 | 33930 ft | 431 kts | 223° |
| 2026-04-26 11:46 | 32.55035 | -80.39557 | 33905 ft | 441 kts | 218° |
| 2026-04-26 11:47 | 32.49736 | -80.43126 | 33896 ft | 443 kts | 219° |
| 2026-04-26 11:47 | 32.44363 | -80.46751 | 33899 ft | 445 kts | 219° |
| 2026-04-26 11:48 | 32.38966 | -80.50385 | 33904 ft | 447 kts | 219° |
| 2026-04-26 11:48 | 32.33551 | -80.54031 | 33905 ft | 449 kts | 219° |
| 2026-04-26 11:49 | 32.28126 | -80.57676 | 33911 ft | 451 kts | 219° |
| 2026-04-26 11:49 | 32.22635 | -80.61366 | 33909 ft | 452 kts | 219° |
| 2026-04-26 11:50 | 32.17160 | -80.65031 | 33909 ft | 454 kts | 218° |
| 2026-04-26 11:50 | 32.11690 | -80.68697 | 33926 ft | 455 kts | 218° |
| 2026-04-26 11:51 | 32.06160 | -80.72388 | 33927 ft | 458 kts | 218° |
| 2026-04-26 11:51 | 32.00628 | -80.76080 | 33930 ft | 459 kts | 218° |
| 2026-04-26 11:52 | 31.95019 | -80.79817 | 33928 ft | 461 kts | 218° |
| 2026-04-26 11:52 | 31.89461 | -80.83519 | 33929 ft | 462 kts | 218° |
| 2026-04-26 11:53 | 31.83865 | -80.87239 | 33921 ft | 462 kts | 218° |
| 2026-04-26 11:54 | 31.75431 | -80.92832 | 33921 ft | 463 kts | 218° |
| 2026-04-26 11:54 | 31.69860 | -80.96523 | 33920 ft | 463 kts | 218° |
| 2026-04-26 11:55 | 31.64225 | -81.00249 | 33921 ft | 464 kts | 218° |
| 2026-04-26 11:55 | 31.58622 | -81.03949 | 33921 ft | 464 kts | 217° |
| 2026-04-26 11:56 | 31.52855 | -81.07491 | 33921 ft | 467 kts | 216° |
| 2026-04-26 11:56 | 31.47128 | -81.11002 | 33925 ft | 467 kts | 216° |
| 2026-04-26 11:57 | 31.41351 | -81.14538 | 33921 ft | 468 kts | 216° |
| 2026-04-26 11:57 | 31.35558 | -81.18037 | 33919 ft | 469 kts | 215° |
| 2026-04-26 11:58 | 31.29740 | -81.21491 | 33926 ft | 470 kts | 215° |
| 2026-04-26 11:58 | 31.23918 | -81.24943 | 33921 ft | 470 kts | 215° |
| 2026-04-26 11:59 | 31.17919 | -81.28094 | 33900 ft | 487 kts | 199° |
| 2026-04-26 11:59 | 31.14490 | -81.28356 | 33936 ft | 499 kts | 183° |
| 2026-04-26 11:59 | 31.11042 | -81.28278 | 33924 ft | 498 kts | 185° |
| 2026-04-26 12:00 | 31.04132 | -81.28230 | 33922 ft | 498 kts | 185° |
| 2026-04-26 12:00 | 30.97179 | -81.28213 | 33922 ft | 498 kts | 185° |
| 2026-04-26 12:01 | 30.90211 | -81.28190 | 33925 ft | 499 kts | 185° |
| 2026-04-26 12:01 | 30.83252 | -81.28175 | 33886 ft | 499 kts | 185° |
| 2026-04-26 12:01 | 30.79801 | -81.28166 | 33730 ft | 500 kts | 185° |
| 2026-04-26 12:02 | 30.76304 | -81.28159 | 33465 ft | 500 kts | 185° |
| 2026-04-26 12:02 | 30.72839 | -81.28147 | 33125 ft | 500 kts | 185° |
| 2026-04-26 12:02 | 30.69371 | -81.28142 | 32789 ft | 497 kts | 185° |
| 2026-04-26 12:02 | 30.65925 | -81.28132 | 32450 ft | 493 kts | 184° |
| 2026-04-26 12:03 | 30.62534 | -81.28126 | 32117 ft | 490 kts | 184° |
| 2026-04-26 12:03 | 30.59107 | -81.28071 | 31954 ft | 490 kts | 180° |
| 2026-04-26 12:03 | 30.55719 | -81.27786 | 31939 ft | 491 kts | 180° |
| 2026-04-26 12:04 | 30.48903 | -81.27263 | 31931 ft | 492 kts | 180° |
| 2026-04-26 12:04 | 30.42054 | -81.26746 | 31935 ft | 492 kts | 180° |
| 2026-04-26 12:05 | 30.35220 | -81.26236 | 31934 ft | 492 kts | 180° |
| 2026-04-26 12:05 | 30.28394 | -81.25719 | 31937 ft | 493 kts | 180° |
| 2026-04-26 12:06 | 30.21538 | -81.25208 | 31943 ft | 493 kts | 180° |
| 2026-04-26 12:06 | 30.14665 | -81.24694 | 31890 ft | 494 kts | 180° |
| 2026-04-26 12:06 | 30.11227 | -81.24438 | 31701 ft | 492 kts | 180° |
| 2026-04-26 12:07 | 30.07814 | -81.24180 | 31269 ft | 492 kts | 180° |
| 2026-04-26 12:07 | 30.04427 | -81.23931 | 30676 ft | 492 kts | 180° |
| 2026-04-26 12:07 | 30.01028 | -81.23676 | 30070 ft | 491 kts | 179° |
| 2026-04-26 12:07 | 29.97595 | -81.23422 | 29426 ft | 488 kts | 179° |
| 2026-04-26 12:08 | 29.94242 | -81.23167 | 28779 ft | 485 kts | 179° |
| 2026-04-26 12:08 | 29.90870 | -81.22917 | 28125 ft | 483 kts | 179° |
| 2026-04-26 12:08 | 29.87545 | -81.22673 | 27449 ft | 481 kts | 179° |
| 2026-04-26 12:08 | 29.84184 | -81.22419 | 26749 ft | 478 kts | 179° |
| 2026-04-26 12:09 | 29.80922 | -81.22178 | 26069 ft | 474 kts | 179° |
| 2026-04-26 12:09 | 29.77617 | -81.21935 | 25411 ft | 469 kts | 179° |
| 2026-04-26 12:09 | 29.74408 | -81.21693 | 24787 ft | 463 kts | 179° |
| 2026-04-26 12:09 | 29.71219 | -81.21462 | 24187 ft | 457 kts | 179° |
| 2026-04-26 12:10 | 29.68044 | -81.21190 | 23585 ft | 451 kts | 179° |
| 2026-04-26 12:10 | 29.64969 | -81.20927 | 23001 ft | 446 kts | 178° |
| 2026-04-26 12:10 | 29.61880 | -81.20663 | 22414 ft | 440 kts | 178° |
| 2026-04-26 12:10 | 29.58834 | -81.20401 | 21831 ft | 434 kts | 178° |
| 2026-04-26 12:11 | 29.55879 | -81.20147 | 21304 ft | 428 kts | 179° |
| 2026-04-26 12:11 | 29.52902 | -81.19891 | 20778 ft | 422 kts | 179° |
| 2026-04-26 12:11 | 29.49998 | -81.19643 | 20255 ft | 417 kts | 178° |
| 2026-04-26 12:11 | 29.47146 | -81.19397 | 19734 ft | 412 kts | 179° |
| 2026-04-26 12:12 | 29.44315 | -81.19157 | 19189 ft | 407 kts | 179° |
| 2026-04-26 12:12 | 29.41501 | -81.18916 | 18650 ft | 403 kts | 178° |
| 2026-04-26 12:12 | 29.38701 | -81.18681 | 18118 ft | 398 kts | 178° |
| 2026-04-26 12:12 | 29.36878 | -81.18522 | 17794 ft | 394 kts | 178° |
| 2026-04-26 12:13 | 29.33249 | -81.18213 | 17150 ft | 388 kts | 178° |
| 2026-04-26 12:13 | 29.30589 | -81.17988 | 16673 ft | 383 kts | 178° |
| 2026-04-26 12:13 | 29.27971 | -81.17756 | 16196 ft | 374 kts | 179° |
| 2026-04-26 12:13 | 29.25388 | -81.17532 | 15707 ft | 364 kts | 179° |
| 2026-04-26 12:14 | 29.22896 | -81.17310 | 15210 ft | 357 kts | 178° |
| 2026-04-26 12:14 | 29.20462 | -81.17098 | 14657 ft | 350 kts | 178° |
| 2026-04-26 12:14 | 29.18059 | -81.16684 | 14027 ft | 348 kts | 163° |
| 2026-04-26 12:14 | 29.15838 | -81.15705 | 13505 ft | 340 kts | 162° |
| 2026-04-26 12:15 | 29.13657 | -81.14771 | 13115 ft | 330 kts | 161° |
| 2026-04-26 12:15 | 29.11526 | -81.13856 | 12798 ft | 321 kts | 161° |
| 2026-04-26 12:15 | 29.09452 | -81.12967 | 12461 ft | 315 kts | 161° |
| 2026-04-26 12:15 | 29.07422 | -81.12099 | 12127 ft | 311 kts | 161° |
| 2026-04-26 12:16 | 29.05410 | -81.11243 | 11835 ft | 307 kts | 161° |
| 2026-04-26 12:16 | 29.03415 | -81.10436 | 11564 ft | 304 kts | 165° |
| 2026-04-26 12:16 | 29.01381 | -81.09669 | 11269 ft | 303 kts | 163° |
| 2026-04-26 12:16 | 28.99382 | -81.08913 | 11018 ft | 303 kts | 164° |
| 2026-04-26 12:17 | 28.97388 | -81.08187 | 10770 ft | 301 kts | 169° |
| 2026-04-26 12:17 | 28.95307 | -81.07902 | 10446 ft | 300 kts | 177° |
| 2026-04-26 12:17 | 28.93214 | -81.07658 | 10068 ft | 302 kts | 177° |
| 2026-04-26 12:17 | 28.91128 | -81.07415 | 9702 ft | 299 kts | 177° |
| 2026-04-26 12:18 | 28.89079 | -81.07205 | 9321 ft | 295 kts | 183° |
| 2026-04-26 12:18 | 28.87191 | -81.07803 | 8931 ft | 277 kts | 216° |
| 2026-04-26 12:18 | 28.85664 | -81.09064 | 8610 ft | 262 kts | 218° |
| 2026-04-26 12:18 | 28.84196 | -81.10232 | 8284 ft | 251 kts | 218° |
| 2026-04-26 12:19 | 28.82813 | -81.11338 | 7978 ft | 242 kts | 218° |
| 2026-04-26 12:19 | 28.81444 | -81.12424 | 7675 ft | 235 kts | 218° |
| 2026-04-26 12:19 | 28.80119 | -81.13482 | 7379 ft | 232 kts | 218° |
| 2026-04-26 12:19 | 28.78783 | -81.14538 | 7094 ft | 230 kts | 218° |
| 2026-04-26 12:20 | 28.77472 | -81.15579 | 6984 ft | 229 kts | 218° |
| 2026-04-26 12:20 | 28.76327 | -81.16783 | 6965 ft | 224 kts | 240° |
| 2026-04-26 12:20 | 28.75575 | -81.18343 | 6873 ft | 221 kts | 243° |
| 2026-04-26 12:20 | 28.74844 | -81.19874 | 6623 ft | 220 kts | 243° |
| 2026-04-26 12:21 | 28.74127 | -81.21374 | 6347 ft | 214 kts | 243° |
| 2026-04-26 12:21 | 28.73425 | -81.22845 | 6070 ft | 208 kts | 244° |
| 2026-04-26 12:21 | 28.72747 | -81.24267 | 5799 ft | 204 kts | 243° |
| 2026-04-26 12:21 | 28.72078 | -81.25670 | 5547 ft | 199 kts | 243° |
| 2026-04-26 12:22 | 28.71419 | -81.27051 | 5294 ft | 196 kts | 243° |
| 2026-04-26 12:22 | 28.70779 | -81.28393 | 5021 ft | 194 kts | 243° |
| 2026-04-26 12:22 | 28.70132 | -81.29733 | 4775 ft | 191 kts | 243° |
| 2026-04-26 12:22 | 28.69503 | -81.31048 | 4523 ft | 188 kts | 243° |
| 2026-04-26 12:23 | 28.68648 | -81.32155 | 4273 ft | 188 kts | 211° |
| 2026-04-26 12:23 | 28.67397 | -81.32554 | 4033 ft | 189 kts | 190° |
| 2026-04-26 12:23 | 28.66097 | -81.32725 | 3816 ft | 186 kts | 187° |
| 2026-04-26 12:23 | 28.64802 | -81.32815 | 3677 ft | 183 kts | 185° |
| 2026-04-26 12:24 | 28.63537 | -81.32856 | 3553 ft | 183 kts | 184° |
| 2026-04-26 12:24 | 28.62259 | -81.32873 | 3423 ft | 178 kts | 182° |
| 2026-04-26 12:24 | 28.61039 | -81.32865 | 3240 ft | 173 kts | 182° |
| 2026-04-26 12:25 | 28.58659 | -81.32845 | 2798 ft | 169 kts | 182° |
| 2026-04-26 12:25 | 28.57489 | -81.32821 | 2572 ft | 168 kts | 182° |
| 2026-04-26 12:25 | 28.56340 | -81.32814 | 2378 ft | 165 kts | 182° |
| 2026-04-26 12:25 | 28.55186 | -81.32800 | 2153 ft | 164 kts | 183° |
| 2026-04-26 12:26 | 28.54057 | -81.32788 | 1942 ft | 156 kts | 182° |
| 2026-04-26 12:26 | 28.53049 | -81.32773 | 1725 ft | 136 kts | 182° |
| 2026-04-26 12:26 | 28.52135 | -81.32764 | 1518 ft | 125 kts | 183° |
| 2026-04-26 12:26 | 28.51275 | -81.32760 | 1346 ft | 121 kts | 183° |
| 2026-04-26 12:27 | 28.50440 | -81.32755 | 1189 ft | 120 kts | 182° |
| 2026-04-26 12:27 | 28.49612 | -81.32753 | 1038 ft | 119 kts | 182° |
| 2026-04-26 12:27 | 28.48778 | -81.32739 | 883 ft | 117 kts | 180° |
| 2026-04-26 12:27 | 28.47977 | -81.32724 | 734 ft | 115 kts | 182° |
| 2026-04-26 12:28 | 28.47179 | -81.32716 | 589 ft | 112 kts | 181° |
| 2026-04-26 12:28 | 28.46397 | -81.32707 | 434 ft | 111 kts | 182° |
| 2026-04-26 12:28 | 28.45633 | -81.32705 | 288 ft | 108 kts | 181° |
| 2026-04-26 12:28 | 28.44897 | -81.32698 | 142 ft | 105 kts | 181° |
| 2026-04-26 12:29 | 28.44209 | -81.32691 | 89 ft | 89 kts | 180° |
| 2026-04-26 12:29 | 28.43821 | -81.32687 | 86 ft | 28 kts | 179° |
| 2026-04-26 12:29 | 28.43671 | -81.32844 | 86 ft | 14 kts | 269° |
| 2026-04-26 12:30 | 28.43628 | -81.32929 | 87 ft | 13 kts | 184° |
| 2026-04-26 12:30 | 28.43536 | -81.32929 | 88 ft | 13 kts | 180° |
| 2026-04-26 12:30 | 28.43438 | -81.32928 | 88 ft | 14 kts | 178° |
| 2026-04-26 12:31 | 28.43276 | -81.33016 | 89 ft | 12 kts | 239° |
| 2026-04-26 12:31 | 28.43239 | -81.33087 | 88 ft | 10 kts | 238° |
| 2026-04-26 12:31 | 28.43220 | -81.33137 | 88 ft | 3 kts | 273° |
| 2026-04-26 12:31 | 28.43232 | -81.33147 | 87 ft | 1 kts | 358° |
| 2026-04-26 12:32 | 28.43235 | -81.33147 | 87 ft | 0 kts | 359° |